createdAt,value
2023-07-06T00:00:09.235Z,5.33
2023-07-06T00:02:39.666Z,5.53
2023-07-06T00:05:07.692Z,5.10
2023-07-06T00:07:35.785Z,6.03
2023-07-06T00:10:03.885Z,6.13
2023-07-06T00:12:31.381Z,5.27
2023-07-06T00:14:58.931Z,5.57
2023-07-06T00:17:27.751Z,5.97
2023-07-06T00:19:55.259Z,5.37
2023-07-06T00:22:22.644Z,4.83
2023-07-06T00:24:50.241Z,5.30
2023-07-06T00:27:17.832Z,5.73
2023-07-06T00:29:57.387Z,5.10
2023-07-06T00:32:29.651Z,5.10
2023-07-06T00:35:00.662Z,5.47
2023-07-06T00:37:28.417Z,5.23
2023-07-06T00:39:55.828Z,5.40
2023-07-06T00:42:23.875Z,5.50
2023-07-06T00:44:53.344Z,4.87
2023-07-06T00:47:25.189Z,5.77
2023-07-06T00:49:53.008Z,5.20
2023-07-06T00:52:22.480Z,5.50
2023-07-06T00:54:49.989Z,6.20
2023-07-06T00:57:19.861Z,5.30
2023-07-06T00:59:47.573Z,7.17
2023-07-06T01:02:16.206Z,5.80
2023-07-06T01:04:44.346Z,5.77
2023-07-06T01:07:15.896Z,5.50
2023-07-06T01:09:44.739Z,5.87
2023-07-06T01:12:12.786Z,5.60
2023-07-06T01:14:40.473Z,5.70
2023-07-06T01:17:09.159Z,6.60
2023-07-06T01:19:52.291Z,5.87
2023-07-06T01:22:27.784Z,6.37
2023-07-06T01:25:07.912Z,4.43
2023-07-06T01:27:50.105Z,5.00
2023-07-06T01:30:27.560Z,6.93
2023-07-06T01:32:58.428Z,4.60
2023-07-06T01:35:28.799Z,4.80
2023-07-06T01:37:56.829Z,4.87
2023-07-06T01:40:24.266Z,4.80
2023-07-06T01:42:51.689Z,5.80
2023-07-06T01:45:20.174Z,4.77
2023-07-06T01:47:49.610Z,4.93
2023-07-06T01:50:21.306Z,4.53
2023-07-06T01:52:58.993Z,4.87
2023-07-06T01:55:28.899Z,4.53
2023-07-06T01:58:03.091Z,4.50
2023-07-06T02:00:31.737Z,4.30
2023-07-06T02:03:02.039Z,4.23
2023-07-06T02:05:32.734Z,5.30
2023-07-06T02:08:00.769Z,4.70
2023-07-06T02:10:31.646Z,4.90
2023-07-06T02:12:59.492Z,6.00
2023-07-06T02:15:28.246Z,5.73
2023-07-06T02:17:57.571Z,5.87
2023-07-06T02:20:25.276Z,4.80
2023-07-06T02:22:54.128Z,6.13
2023-07-06T02:25:22.575Z,6.20
2023-07-06T02:27:50.166Z,5.33
2023-07-06T02:30:17.887Z,5.17
2023-07-06T02:32:47.280Z,5.07
2023-07-06T02:35:14.857Z,5.77
2023-07-06T02:37:43.097Z,4.83
2023-07-06T02:40:12.812Z,5.80
2023-07-06T02:42:41.490Z,5.90
2023-07-06T02:45:10.458Z,5.03
2023-07-06T02:47:38.467Z,6.80
2023-07-06T02:50:08.163Z,5.63
2023-07-06T02:52:35.662Z,5.20
2023-07-06T02:55:03.047Z,4.80
2023-07-06T02:57:32.727Z,5.17
2023-07-06T03:00:00.136Z,4.90
2023-07-06T03:02:27.933Z,4.80
2023-07-06T03:04:55.485Z,4.97
2023-07-06T03:07:24.474Z,5.23
2023-07-06T03:09:51.912Z,5.53
2023-07-06T03:12:20.846Z,5.13
2023-07-06T03:14:49.752Z,5.17
2023-07-06T03:17:17.242Z,5.93
2023-07-06T03:19:44.936Z,4.97
2023-07-06T03:22:12.392Z,4.70
2023-07-06T03:24:39.924Z,5.40
2023-07-06T03:27:07.624Z,6.53
2023-07-06T03:29:36.760Z,5.57
2023-07-06T03:32:07.359Z,5.20
2023-07-06T03:34:34.839Z,5.93
2023-07-06T03:37:05.781Z,6.43
2023-07-06T03:39:33.813Z,5.83
2023-07-06T03:42:02.538Z,4.80
2023-07-06T03:44:30.006Z,5.13
2023-07-06T03:46:59.423Z,5.87
2023-07-06T03:49:28.225Z,4.80
2023-07-06T03:51:55.674Z,5.23
2023-07-06T03:54:23.961Z,6.20
2023-07-06T03:56:52.128Z,5.30
2023-07-06T03:59:19.548Z,5.23
2023-07-06T04:01:47.464Z,4.50
2023-07-06T04:04:16.633Z,4.93
2023-07-06T04:06:46.453Z,4.90
2023-07-06T04:09:14.179Z,4.90
2023-07-06T04:11:42.545Z,4.57
2023-07-06T04:14:10.005Z,5.27
2023-07-06T04:16:38.031Z,4.70
2023-07-06T04:19:06.368Z,4.47
2023-07-06T04:21:33.806Z,4.90
2023-07-06T04:24:05.098Z,4.90
2023-07-06T04:26:32.637Z,4.97
2023-07-06T04:29:00.060Z,4.20
2023-07-06T04:31:28.484Z,4.93
2023-07-06T04:33:56.188Z,4.60
2023-07-06T04:36:23.610Z,5.63
2023-07-06T04:38:51.061Z,5.60
2023-07-06T04:41:19.831Z,4.90
2023-07-06T04:43:47.224Z,4.80
2023-07-06T04:46:14.722Z,5.37
2023-07-06T04:48:45.518Z,6.00
2023-07-06T04:51:13.100Z,5.03
2023-07-06T04:53:40.750Z,7.70
2023-07-06T04:56:08.232Z,5.13
2023-07-06T04:58:38.817Z,5.53
2023-07-06T05:01:08.252Z,5.17
2023-07-06T05:03:36.899Z,7.27
2023-07-06T05:06:05.946Z,6.60
2023-07-06T05:08:34.189Z,5.57
2023-07-06T05:11:04.642Z,9.23
2023-07-06T05:13:32.412Z,4.77
2023-07-06T05:16:01.480Z,5.53
2023-07-06T05:18:30.442Z,5.40
2023-07-06T05:20:58.469Z,6.03
2023-07-06T05:23:28.264Z,5.60
2023-07-06T05:25:56.644Z,5.20
2023-07-06T05:28:24.663Z,4.93
2023-07-06T05:30:52.837Z,4.93
2023-07-06T05:33:21.795Z,5.97
2023-07-06T05:35:52.546Z,4.80
2023-07-06T05:38:20.505Z,5.07
2023-07-06T05:40:47.937Z,5.37
2023-07-06T05:43:17.162Z,4.50
2023-07-06T05:45:44.583Z,5.40
2023-07-06T05:48:11.991Z,4.90
2023-07-06T05:50:41.229Z,5.30
2023-07-06T05:53:08.651Z,4.97
2023-07-06T05:55:36.460Z,6.60
2023-07-06T05:58:04.455Z,5.73
2023-07-06T06:00:38.055Z,5.33
2023-07-06T06:03:05.709Z,5.20
2023-07-06T06:05:34.392Z,6.80
2023-07-06T06:08:03.843Z,5.43
2023-07-06T06:10:32.326Z,5.70
2023-07-06T06:13:00.016Z,7.23
2023-07-06T06:15:28.168Z,6.17
2023-07-06T06:17:55.680Z,6.63
2023-07-06T06:20:23.616Z,9.30
2023-07-06T06:22:52.479Z,8.60
2023-07-06T06:25:21.316Z,7.67
2023-07-06T06:27:48.867Z,7.53
2023-07-06T06:30:17.031Z,8.37
2023-07-06T06:32:44.629Z,7.77
2023-07-06T06:35:22.768Z,7.63
2023-07-06T06:37:50.282Z,10.10
2023-07-06T06:40:17.895Z,7.73
2023-07-06T06:42:48.885Z,8.37
2023-07-06T06:45:16.766Z,8.23
2023-07-06T06:47:44.245Z,7.67
2023-07-06T06:50:12.943Z,7.00
2023-07-06T06:52:40.440Z,8.77
2023-07-06T06:55:08.534Z,6.57
2023-07-06T06:57:36.004Z,5.23
2023-07-06T07:00:07.196Z,5.67
2023-07-06T07:02:34.953Z,5.10
2023-07-06T07:05:02.735Z,6.00
2023-07-06T07:07:30.155Z,7.07
2023-07-06T07:09:57.619Z,9.67
2023-07-06T07:12:26.292Z,7.33
2023-07-06T07:14:54.627Z,6.37
2023-07-06T07:17:23.443Z,6.77
2023-07-06T07:19:52.569Z,6.43
2023-07-06T07:22:20.017Z,6.10
2023-07-06T07:24:48.214Z,5.10
2023-07-06T07:27:15.781Z,4.43
2023-07-06T07:29:43.964Z,5.13
2023-07-06T07:32:11.520Z,5.33
2023-07-06T07:34:41.480Z,5.10
2023-07-06T07:37:11.969Z,5.27
2023-07-06T07:39:40.067Z,7.83
2023-07-06T07:42:07.525Z,5.20
2023-07-06T07:44:34.992Z,5.63
2023-07-06T07:47:03.271Z,4.80
2023-07-06T07:49:30.725Z,4.80
2023-07-06T07:51:59.488Z,4.87
2023-07-06T07:54:28.015Z,4.60
2023-07-06T07:56:55.874Z,5.20
2023-07-06T07:59:24.695Z,5.50
2023-07-06T08:01:52.184Z,5.03
2023-07-06T08:04:19.666Z,4.90
2023-07-06T08:06:47.111Z,4.47
2023-07-06T08:09:15.878Z,4.43
2023-07-06T08:11:47.946Z,5.00
2023-07-06T08:14:15.759Z,4.80
2023-07-06T08:16:43.375Z,4.93
2023-07-06T08:19:23.828Z,4.57
2023-07-06T08:22:10.078Z,4.10
2023-07-06T08:24:39.466Z,4.87
2023-07-06T08:27:07.328Z,4.67
2023-07-06T08:29:34.774Z,4.90
2023-07-06T08:32:04.616Z,5.00
2023-07-06T08:34:32.402Z,4.70
2023-07-06T08:37:00.956Z,7.80
2023-07-06T08:39:28.627Z,4.60
2023-07-06T08:41:58.962Z,4.90
2023-07-06T08:44:26.644Z,5.03
2023-07-06T08:46:57.054Z,6.07
2023-07-06T08:49:29.917Z,4.77
2023-07-06T08:52:04.104Z,4.70
2023-07-06T08:54:32.838Z,4.50
2023-07-06T08:57:03.016Z,4.43
2023-07-06T08:59:37.700Z,4.50
2023-07-06T09:02:16.045Z,5.10
2023-07-06T09:04:43.747Z,4.33
2023-07-06T09:07:14.174Z,4.27
2023-07-06T09:09:42.630Z,5.07
2023-07-06T09:12:18.825Z,4.43
2023-07-06T09:14:50.967Z,4.90
2023-07-06T09:17:19.089Z,4.70
2023-07-06T09:19:46.755Z,4.60
2023-07-06T09:22:14.489Z,4.23
2023-07-06T09:24:46.230Z,4.27
2023-07-06T09:27:19.833Z,4.53
2023-07-06T09:29:57.383Z,4.37
2023-07-06T09:32:24.882Z,4.23
2023-07-06T09:34:53.041Z,4.13
2023-07-06T09:37:21.797Z,4.30
2023-07-06T09:39:58.728Z,4.40
2023-07-06T09:42:29.245Z,4.67
2023-07-06T09:44:57.315Z,4.57
2023-07-06T09:47:25.168Z,5.30
2023-07-06T09:49:54.514Z,4.20
2023-07-06T09:52:22.524Z,4.80
2023-07-06T09:54:53.333Z,4.30
2023-07-06T09:57:20.820Z,3.83
2023-07-06T09:59:50.735Z,5.63
2023-07-06T10:02:25.187Z,4.40
2023-07-06T10:04:56.438Z,4.47
2023-07-06T10:07:28.884Z,4.47
2023-07-06T10:10:03.404Z,4.50
2023-07-06T10:12:34.972Z,4.03
2023-07-06T10:15:09.164Z,4.23
2023-07-06T10:17:38.619Z,4.10
2023-07-06T10:20:13.641Z,4.50
2023-07-06T10:22:44.598Z,4.40
2023-07-06T10:25:19.437Z,4.40
2023-07-06T10:27:48.812Z,6.60
2023-07-06T10:30:23.869Z,4.20
2023-07-06T10:32:52.717Z,5.07
2023-07-06T10:35:24.717Z,4.27
2023-07-06T10:37:52.322Z,4.23
2023-07-06T10:40:21.889Z,3.80
2023-07-06T10:42:53.275Z,3.63
2023-07-06T10:45:38.023Z,4.05
2023-07-06T10:48:09.960Z,3.83
2023-07-06T10:50:44.743Z,4.23
2023-07-06T10:53:18.578Z,4.20
2023-07-06T10:55:59.334Z,4.28
2023-07-06T10:58:28.880Z,4.05
2023-07-06T11:00:58.379Z,4.10
2023-07-06T11:03:28.239Z,4.07
2023-07-06T11:05:57.307Z,4.33
2023-07-06T11:08:46.577Z,4.68
2023-07-06T11:11:20.032Z,3.92
2023-07-06T11:13:50.715Z,4.30
2023-07-06T11:16:28.027Z,3.60
2023-07-06T11:18:57.366Z,4.00
2023-07-06T11:21:30.456Z,4.10
2023-07-06T11:23:59.547Z,3.70
2023-07-06T11:26:35.309Z,3.42
2023-07-06T11:29:03.979Z,3.93
2023-07-06T11:31:37.882Z,4.03
2023-07-06T11:34:08.881Z,3.97
2023-07-06T11:36:40.687Z,3.15
2023-07-06T11:39:13.048Z,3.27
2023-07-06T11:41:44.012Z,3.75
2023-07-06T11:44:20.867Z,3.15
2023-07-06T11:46:56.332Z,3.10
2023-07-06T11:49:33.775Z,3.25
2023-07-06T11:52:06.523Z,3.08
2023-07-06T11:54:49.307Z,3.33
2023-07-06T11:57:32.657Z,3.83
2023-07-06T12:00:34.254Z,2.50
2023-07-06T12:03:04.657Z,2.75
2023-07-06T12:05:36.883Z,3.13
2023-07-06T12:08:05.774Z,3.13
2023-07-06T12:10:35.878Z,2.85
2023-07-06T12:13:06.164Z,2.70
2023-07-06T12:15:34.022Z,2.67
2023-07-06T12:18:03.800Z,2.58
2023-07-06T12:20:33.034Z,3.30
2023-07-06T12:23:00.904Z,3.70
2023-07-06T12:25:29.602Z,3.15
2023-07-06T12:27:57.734Z,3.30
2023-07-06T12:30:29.458Z,3.40
2023-07-06T12:32:57.952Z,3.35
2023-07-06T12:35:28.306Z,3.40
2023-07-06T12:37:58.016Z,3.42
2023-07-06T12:40:27.432Z,3.90
2023-07-06T12:42:55.157Z,3.70
2023-07-06T12:45:23.847Z,3.25
2023-07-06T12:47:57.654Z,3.33
2023-07-06T12:50:30.439Z,3.70
2023-07-06T12:53:10.214Z,4.18
2023-07-06T12:55:38.012Z,3.65
2023-07-06T12:58:27.504Z,3.20
2023-07-06T13:01:02.023Z,3.45
2023-07-06T13:03:29.615Z,3.70
2023-07-06T13:05:58.051Z,4.03
2023-07-06T13:08:27.140Z,3.50
2023-07-06T13:11:00.202Z,3.78
2023-07-06T13:13:28.265Z,3.63
2023-07-06T13:15:59.549Z,3.50
2023-07-06T13:18:27.231Z,3.95
2023-07-06T13:20:55.394Z,4.00
2023-07-06T13:23:22.875Z,4.18
2023-07-06T13:25:52.664Z,4.53
2023-07-06T13:28:21.921Z,4.10
2023-07-06T13:30:49.796Z,4.07
2023-07-06T13:33:17.881Z,4.07
2023-07-06T13:35:47.761Z,4.18
2023-07-06T13:38:15.808Z,4.45
2023-07-06T13:40:44.859Z,4.05
2023-07-06T13:43:17.529Z,4.47
2023-07-06T13:45:45.478Z,5.07
2023-07-06T13:48:13.963Z,4.57
2023-07-06T13:50:42.511Z,5.30
2023-07-06T13:53:11.892Z,4.85
2023-07-06T13:55:45.652Z,4.20
2023-07-06T13:58:13.218Z,4.50
2023-07-06T14:00:43.418Z,4.82
2023-07-06T14:03:13.966Z,4.68
2023-07-06T14:05:41.439Z,4.63
2023-07-06T14:08:11.672Z,5.40
2023-07-06T14:10:41.260Z,4.65
2023-07-06T14:13:09.470Z,4.65
2023-07-06T14:15:38.248Z,4.28
2023-07-06T14:18:08.943Z,4.80
2023-07-06T14:20:37.259Z,4.65
2023-07-06T14:23:04.726Z,4.45
2023-07-06T14:25:34.928Z,4.50
2023-07-06T14:28:04.454Z,5.00
2023-07-06T14:30:32.608Z,4.50
2023-07-06T14:33:00.654Z,4.43
2023-07-06T14:35:29.497Z,4.90
2023-07-06T14:37:56.951Z,5.22
2023-07-06T14:40:24.396Z,5.10
2023-07-06T14:42:54.151Z,4.75
2023-07-06T14:45:21.634Z,4.40
2023-07-06T14:47:49.220Z,4.03
2023-07-06T14:50:18.187Z,4.53
2023-07-06T14:52:47.438Z,5.28
2023-07-06T14:55:15.220Z,4.75
2023-07-06T14:57:42.678Z,4.70
2023-07-06T15:00:12.840Z,4.30
2023-07-06T15:02:40.650Z,4.40
2023-07-06T15:05:08.366Z,5.15
2023-07-06T15:07:36.417Z,4.80
2023-07-06T15:10:05.792Z,5.03
2023-07-06T15:12:33.647Z,4.93
2023-07-06T15:15:01.545Z,4.72
2023-07-06T15:17:29.132Z,4.88
2023-07-06T15:19:56.640Z,4.78
2023-07-06T15:22:24.101Z,4.95
2023-07-06T15:24:51.544Z,5.13
2023-07-06T15:27:20.289Z,5.10
2023-07-06T15:29:47.704Z,4.60
2023-07-06T15:32:15.405Z,4.75
2023-07-06T15:34:59.416Z,5.00
2023-07-06T15:37:28.652Z,4.78
2023-07-06T15:39:58.260Z,4.15
2023-07-06T15:42:27.338Z,4.57
2023-07-06T15:44:54.798Z,4.70
2023-07-06T15:47:22.513Z,4.63
2023-07-06T15:49:50.052Z,4.35
2023-07-06T15:52:17.580Z,4.45
2023-07-06T15:54:45.150Z,4.60
2023-07-06T15:57:12.840Z,4.80
2023-07-06T15:59:41.702Z,4.90
2023-07-06T16:02:12.561Z,5.10
2023-07-06T16:04:40.108Z,4.60
2023-07-06T16:07:07.761Z,4.60
2023-07-06T16:09:35.239Z,4.90
2023-07-06T16:12:02.735Z,4.35
2023-07-06T16:14:30.418Z,4.35
2023-07-06T16:17:02.318Z,4.55
2023-07-06T16:19:29.836Z,5.32
2023-07-06T16:21:57.355Z,5.13
2023-07-06T16:24:24.819Z,4.68
2023-07-06T16:26:52.303Z,4.60
2023-07-06T16:29:19.774Z,4.70
2023-07-06T16:31:47.286Z,4.22
2023-07-06T16:34:16.099Z,4.95
2023-07-06T16:36:43.563Z,5.80
2023-07-06T16:39:11.046Z,5.38
2023-07-06T16:41:38.484Z,4.60
2023-07-06T16:44:06.103Z,5.40
2023-07-06T16:46:33.877Z,4.82
2023-07-06T16:49:01.701Z,5.03
2023-07-06T16:51:30.488Z,4.72
2023-07-06T16:53:57.909Z,4.95
2023-07-06T16:56:25.590Z,4.72
2023-07-06T16:58:53.072Z,4.30
2023-07-06T17:01:22.827Z,4.63
2023-07-06T17:03:50.532Z,7.57
2023-07-06T17:06:18.187Z,5.03
2023-07-06T17:08:46.984Z,5.18
2023-07-06T17:11:14.631Z,6.35
2023-07-06T17:13:42.198Z,5.13
2023-07-06T17:16:09.697Z,4.57
2023-07-06T17:18:37.697Z,4.40
2023-07-06T17:21:07.132Z,5.07
2023-07-06T17:23:34.868Z,4.65
2023-07-06T17:26:04.483Z,5.13
2023-07-06T17:28:32.366Z,5.15
2023-07-06T17:31:04.995Z,5.75
2023-07-06T17:33:32.454Z,4.80
2023-07-06T17:35:59.925Z,5.38
2023-07-06T17:38:27.531Z,4.82
2023-07-06T17:40:59.952Z,5.35
2023-07-06T17:43:29.214Z,6.80
2023-07-06T17:45:57.088Z,5.65
2023-07-06T17:48:25.167Z,5.15
2023-07-06T17:50:52.667Z,5.20
2023-07-06T17:53:20.369Z,5.80
2023-07-06T17:55:47.858Z,5.30
2023-07-06T17:58:16.099Z,4.60
2023-07-06T18:00:45.618Z,4.70
2023-07-06T18:03:13.457Z,5.25
2023-07-06T18:05:43.830Z,5.50
2023-07-06T18:08:11.526Z,5.03
2023-07-06T18:10:39.152Z,5.15
2023-07-06T18:13:07.085Z,4.47
2023-07-06T18:15:34.599Z,6.18
2023-07-06T18:18:03.869Z,5.13
2023-07-06T18:20:31.469Z,5.13
2023-07-06T18:22:59.635Z,4.80
2023-07-06T18:25:27.617Z,4.70
2023-07-06T18:27:55.241Z,4.07
2023-07-06T18:30:22.720Z,4.32
2023-07-06T18:32:50.233Z,4.07
2023-07-06T18:35:19.063Z,4.63
2023-07-06T18:37:46.488Z,4.05
2023-07-06T18:40:14.248Z,4.60
2023-07-06T18:42:41.713Z,4.68
2023-07-06T18:45:09.888Z,4.30
2023-07-06T18:47:37.729Z,4.22
2023-07-06T18:50:06.265Z,3.85
2023-07-06T18:52:38.508Z,4.20
2023-07-06T18:55:06.455Z,4.00
2023-07-06T18:57:34.031Z,4.25
2023-07-06T19:00:01.658Z,4.15
2023-07-06T19:02:29.124Z,4.45
2023-07-06T19:04:56.637Z,3.75
2023-07-06T19:07:24.053Z,3.90
2023-07-06T19:09:54.997Z,4.20
2023-07-06T19:12:22.413Z,3.92
2023-07-06T19:14:49.871Z,3.95
2023-07-06T19:17:17.352Z,6.80
2023-07-06T19:19:44.930Z,4.10
2023-07-06T19:22:12.484Z,4.35
2023-07-06T19:24:39.929Z,4.25
2023-07-06T19:27:08.975Z,4.15
2023-07-06T19:29:36.436Z,4.43
2023-07-06T19:32:16.662Z,4.40
2023-07-06T19:34:45.182Z,4.38
2023-07-06T19:37:12.673Z,3.53
2023-07-06T19:39:40.100Z,4.68
2023-07-06T19:42:08.931Z,4.28
2023-07-06T19:44:36.379Z,7.30
2023-07-06T19:47:04.026Z,4.30
2023-07-06T19:49:31.579Z,4.30
2023-07-06T19:52:01.776Z,4.22
2023-07-06T19:54:29.221Z,4.37
2023-07-06T19:56:56.706Z,3.97
2023-07-06T19:59:25.463Z,4.80
2023-07-06T20:01:52.904Z,4.35
2023-07-06T20:04:20.352Z,4.05
2023-07-06T20:06:47.768Z,3.72
2023-07-06T20:09:15.192Z,4.30
2023-07-06T20:11:42.722Z,4.22
2023-07-06T20:14:10.185Z,3.95
2023-07-06T20:16:39.288Z,4.23
2023-07-06T20:19:06.786Z,4.40
2023-07-06T20:21:34.282Z,4.13
2023-07-06T20:24:02.221Z,4.00
2023-07-06T20:26:29.699Z,6.13
2023-07-06T20:28:57.293Z,5.00
2023-07-06T20:31:25.028Z,4.10
2023-07-06T20:33:54.131Z,4.97
2023-07-06T20:36:21.532Z,3.90
2023-07-06T20:38:49.230Z,3.90
2023-07-06T20:41:16.678Z,4.30
2023-07-06T20:43:44.142Z,4.37
2023-07-06T20:46:11.666Z,4.40
2023-07-06T20:48:39.662Z,4.53
2023-07-06T20:51:08.478Z,5.93
2023-07-06T20:53:35.965Z,4.23
2023-07-06T20:56:03.424Z,4.60
2023-07-06T20:58:30.890Z,6.97
2023-07-06T21:00:58.592Z,5.60
2023-07-06T21:03:26.343Z,4.43
2023-07-06T21:05:53.927Z,4.30
2023-07-06T21:08:23.014Z,5.13
2023-07-06T21:10:50.472Z,4.93
2023-07-06T21:13:18.088Z,4.50
2023-07-06T21:15:45.595Z,4.70
2023-07-06T21:18:13.013Z,4.50
2023-07-06T21:20:40.893Z,5.13
2023-07-06T21:23:08.494Z,5.03
2023-07-06T21:25:37.284Z,4.03
2023-07-06T21:28:05.268Z,4.30
2023-07-06T21:30:32.681Z,4.70
2023-07-06T21:33:00.166Z,4.93
2023-07-06T21:35:28.070Z,4.70
2023-07-06T21:37:55.516Z,4.77
2023-07-06T21:40:23.342Z,4.93
2023-07-06T21:42:52.186Z,5.47
2023-07-06T21:45:19.622Z,5.33
2023-07-06T21:47:47.251Z,4.73
2023-07-06T21:50:14.710Z,5.37
2023-07-06T21:52:42.156Z,4.90
2023-07-06T21:55:09.998Z,4.63
2023-07-06T21:57:37.467Z,5.27
2023-07-06T22:00:11.904Z,5.70
2023-07-06T22:02:39.453Z,4.90
2023-07-06T22:05:07.077Z,5.10
2023-07-06T22:07:34.526Z,4.03
2023-07-06T22:10:01.963Z,4.40
2023-07-06T22:12:29.413Z,4.43
2023-07-06T22:14:56.860Z,4.87
2023-07-06T22:17:25.723Z,5.20
2023-07-06T22:19:53.149Z,5.10
2023-07-06T22:22:20.588Z,4.73
2023-07-06T22:24:47.970Z,5.10
2023-07-06T22:27:15.449Z,4.70
2023-07-06T22:29:43.293Z,4.60
2023-07-06T22:32:12.108Z,5.47
2023-07-06T22:34:40.865Z,5.07
2023-07-06T22:37:08.268Z,5.13
2023-07-06T22:39:36.465Z,4.93
2023-07-06T22:42:04.096Z,5.67
2023-07-06T22:44:31.475Z,5.83
2023-07-06T22:46:58.973Z,5.10
2023-07-06T22:49:26.599Z,5.33
2023-07-06T22:51:56.160Z,6.17
2023-07-06T22:54:23.689Z,5.27
2023-07-06T22:56:51.140Z,5.53
2023-07-06T22:59:18.580Z,6.07
2023-07-06T23:01:46.035Z,6.10
2023-07-06T23:04:14.013Z,5.97
2023-07-06T23:06:41.454Z,6.00
2023-07-06T23:09:10.797Z,5.90
2023-07-06T23:11:39.138Z,8.83
2023-07-06T23:14:10.289Z,4.93
2023-07-06T23:16:38.505Z,5.40
2023-07-06T23:19:06.018Z,5.63
2023-07-06T23:21:35.700Z,4.93
2023-07-06T23:24:03.256Z,5.70
2023-07-06T23:26:34.634Z,4.40
2023-07-06T23:29:02.121Z,5.67
2023-07-06T23:31:29.930Z,4.43
2023-07-06T23:33:59.490Z,5.73
2023-07-06T23:36:27.237Z,5.33
2023-07-06T23:38:54.814Z,6.07
2023-07-06T23:41:22.694Z,8.47
2023-07-06T23:43:51.576Z,5.33
2023-07-06T23:46:20.170Z,5.03
2023-07-06T23:48:47.882Z,6.03
2023-07-06T23:51:15.343Z,5.10
2023-07-06T23:53:42.856Z,5.10
2023-07-06T23:56:10.495Z,4.77
2023-07-06T23:58:37.925Z,5.53
